Time,TemperatureF,DewpointF,PressureIn,WindDirection,WindDirectionDegrees,WindSpeedMPH,WindSpeedGustMPH,Humidity,HourlyPrecipIn,Conditions,Clouds,dailyrainin,SoftwareType,DateUTC
2013-03-15 00:00:00,38.7,35.7,29.47,NNE,22,2.7,2.9,89,0.00,,OVC240,0.00,VWS V14.01,2013-03-15 05:00:00,
2013-03-15 00:09:00,38.5,35.5,29.47,NNE,22,1.1,1.1,89,0.00,,OVC240,0.00,VWS V14.01,2013-03-15 05:09:00,
2013-03-15 00:10:00,38.5,35.5,29.47,NNE,22,1.1,1.1,89,0.00,,OVC240,0.00,VWS V14.01,2013-03-15 05:10:00,
2013-03-15 00:19:00,38.5,35.2,29.47,NNE,22,1.6,1.6,88,0.00,,OVC240,0.00,VWS V14.01,2013-03-15 05:19:00,
2013-03-15 00:20:00,38.5,35.2,29.47,NNE,22,1.6,1.6,88,0.00,,OVC240,0.00,VWS V14.01,2013-03-15 05:20:00,
2013-03-15 00:29:00,37.9,34.7,29.47,NE,45,0.0,0.0,88,0.00,,OVC240,0.00,VWS V14.01,2013-03-15 05:29:00,
2013-03-15 00:30:00,37.9,34.7,29.47,NE,45,0.0,0.0,88,0.00,,OVC240,0.00,VWS V14.01,2013-03-15 05:30:00,
2013-03-15 00:39:00,37.2,34.0,29.47,NE,45,0.0,0.0,88,0.00,,OVC240,0.00,VWS V14.01,2013-03-15 05:39:00,
2013-03-15 00:40:00,37.2,34.0,29.47,NE,45,0.0,0.0,88,0.00,,OVC240,0.00,VWS V14.01,2013-03-15 05:40:00,
2013-03-15 00:49:00,36.7,33.2,29.47,NE,45,0.9,1.1,87,0.00,,OVC240,0.00,VWS V14.01,2013-03-15 05:49:00,
2013-03-15 00:50:00,36.7,33.2,29.47,NE,45,0.9,1.1,87,0.00,,OVC240,0.00,VWS V14.01,2013-03-15 05:50:00,
2013-03-15 00:59:00,35.8,32.6,29.44,NNW,338,0.0,0.0,88,0.00,,OVC240,0.00,VWS V14.01,2013-03-15 05:59:00,
2013-03-15 01:00:00,35.8,32.6,29.44,NNW,338,0.0,0.0,88,0.00,,OVC240,0.00,VWS V14.01,2013-03-15 06:00:00,
2013-03-15 01:12:00,34.9,31.7,29.44,NNW,338,0.0,0.0,88,0.04,,OVC240,0.04,VWS V14.01,2013-03-15 06:12:00,
2013-03-15 01:22:00,34.3,31.2,29.44,NNW,338,1.6,1.6,88,0.04,,OVC240,0.04,VWS V14.01,2013-03-15 06:22:00,
2013-03-15 01:32:00,34.0,30.8,29.44,NNW,338,0.0,1.6,88,0.04,,OVC240,0.04,VWS V14.01,2013-03-15 06:32:00,
2013-03-15 01:42:00,33.8,30.6,29.44,NNW,338,1.1,1.6,88,0.04,,OVC240,0.04,VWS V14.01,2013-03-15 06:42:00,
2013-03-15 01:52:00,33.4,30.5,29.44,NNW,338,0.0,1.6,89,0.04,,OVC240,0.04,VWS V14.01,2013-03-15 06:52:00,
2013-03-15 02:02:00,33.3,30.4,29.41,NNW,338,0.9,1.6,89,0.04,,OVC240,0.04,VWS V14.01,2013-03-15 07:02:00,
2013-03-15 02:12:00,32.9,30.0,29.41,NW,315,0.0,1.1,89,0.00,,OVC240,0.04,VWS V14.01,2013-03-15 07:12:00,
2013-03-15 02:22:00,32.7,30.1,29.41,NW,315,1.1,1.1,90,0.00,,OVC240,0.04,VWS V14.01,2013-03-15 07:22:00,
2013-03-15 02:32:00,32.5,30.2,29.44,NW,315,0.0,1.1,91,0.00,,OVC240,0.04,VWS V14.01,2013-03-15 07:32:00,
2013-03-15 02:52:00,32.4,30.0,29.44,NW,315,0.0,1.1,91,0.00,,OVC240,0.04,VWS V14.01,2013-03-15 07:52:00,
2013-03-15 03:02:00,32.2,29.9,29.44,NW,315,0.0,1.1,91,0.00,,OVC240,0.04,VWS V14.01,2013-03-15 08:02:00,
2013-03-15 03:12:00,32.0,29.7,29.44,NW,315,0.0,1.1,91,0.00,,OVC240,0.04,VWS V14.01,2013-03-15 08:12:00,
2013-03-15 03:22:00,32.0,29.7,29.44,NW,315,0.0,0.0,91,0.00,,OVC240,0.04,VWS V14.01,2013-03-15 08:22:00,
2013-03-15 03:32:00,31.6,29.3,29.41,NW,315,0.0,0.0,91,0.00,,OVC240,0.04,VWS V14.01,2013-03-15 08:32:00,
2013-03-15 03:42:00,31.6,29.3,29.41,NW,315,1.1,1.1,91,0.00,,OVC240,0.04,VWS V14.01,2013-03-15 08:42:00,
2013-03-15 03:52:00,31.5,29.1,29.41,NW,315,0.9,1.1,91,0.00,,OVC240,0.04,VWS V14.01,2013-03-15 08:52:00,
2013-03-15 04:02:00,31.3,29.0,29.41,NW,315,0.0,1.1,91,0.00,,OVC240,0.04,VWS V14.01,2013-03-15 09:02:00,
2013-03-15 04:12:00,31.3,29.2,29.38,NW,315,0.0,1.1,92,0.00,,OVC240,0.04,VWS V14.01,2013-03-15 09:12:00,
2013-03-15 04:32:00,31.1,29.0,29.38,NW,315,0.0,1.1,92,0.00,,OVC240,0.04,VWS V14.01,2013-03-15 09:32:00,
2013-03-15 04:42:00,30.6,28.5,29.38,NW,315,0.0,0.9,92,0.00,,OVC240,0.04,VWS V14.01,2013-03-15 09:42:00,
2013-03-15 04:52:00,30.4,28.3,29.38,NW,315,0.0,0.0,92,0.00,,OVC240,0.04,VWS V14.01,2013-03-15 09:52:00,
2013-03-15 05:02:00,30.2,28.4,29.38,NW,315,0.0,0.0,93,0.00,,OVC240,0.04,VWS V14.01,2013-03-15 10:02:00,
2013-03-15 05:12:00,30.0,28.2,29.38,NW,315,0.0,0.0,93,0.00,,OVC240,0.04,VWS V14.01,2013-03-15 10:12:00,
2013-03-15 05:22:00,30.0,28.2,29.38,NW,315,0.0,0.0,93,0.00,,OVC240,0.04,VWS V14.01,2013-03-15 10:22:00,
2013-03-15 05:32:00,29.8,28.1,29.38,NW,315,0.0,0.0,93,0.00,,OVC240,0.04,VWS V14.01,2013-03-15 10:32:00,
2013-03-15 05:42:00,29.7,27.9,29.38,NW,315,0.0,0.0,93,0.00,,OVC240,0.04,VWS V14.01,2013-03-15 10:42:00,
2013-03-15 05:52:00,29.3,27.5,29.38,NW,315,0.0,0.0,93,0.00,,OVC240,0.04,VWS V14.01,2013-03-15 10:52:00,
2013-03-15 06:02:00,28.9,27.2,29.38,NW,315,0.0,0.0,93,0.00,,OVC240,0.04,VWS V14.01,2013-03-15 11:02:00,
2013-03-15 06:12:00,28.9,27.2,29.38,NW,315,0.0,0.0,93,0.00,,OVC240,0.04,VWS V14.01,2013-03-15 11:12:00,
2013-03-15 06:22:00,28.9,27.2,29.38,NW,315,0.0,0.0,93,0.00,,OVC240,0.04,VWS V14.01,2013-03-15 11:22:00,
2013-03-15 06:32:00,28.9,27.2,29.38,NW,315,0.0,0.0,93,0.00,,OVC240,0.04,VWS V14.01,2013-03-15 11:32:00,
2013-03-15 06:42:00,28.8,27.0,29.35,NW,315,0.0,0.0,93,0.00,,OVC240,0.04,VWS V14.01,2013-03-15 11:42:00,
2013-03-15 06:52:00,28.8,27.0,29.35,NW,315,0.0,0.0,93,0.00,,OVC240,0.04,VWS V14.01,2013-03-15 11:52:00,
2013-03-15 07:09:00,28.9,27.4,29.35,NW,315,0.0,0.0,94,0.00,,OVC240,0.04,VWS V14.01,2013-03-15 12:09:00,
2013-03-15 07:10:00,28.9,27.4,29.35,NW,315,0.0,0.0,94,0.00,,OVC240,0.04,VWS V14.01,2013-03-15 12:10:00,
2013-03-15 07:19:00,29.3,27.8,29.38,NW,315,0.0,0.0,94,0.00,,OVC240,0.04,VWS V14.01,2013-03-15 12:19:00,
2013-03-15 07:20:00,29.3,27.8,29.38,NW,315,0.0,0.0,94,0.00,,OVC240,0.04,VWS V14.01,2013-03-15 12:20:00,
2013-03-15 07:29:00,29.8,28.3,29.38,NW,315,0.0,0.0,94,0.00,,OVC240,0.04,VWS V14.01,2013-03-15 12:29:00,
2013-03-15 07:30:00,29.8,28.3,29.38,NW,315,0.0,0.0,94,0.00,,OVC240,0.04,VWS V14.01,2013-03-15 12:30:00,
2013-03-15 07:39:00,30.7,29.5,29.38,NW,315,0.0,0.0,95,0.00,,OVC240,0.04,VWS V14.01,2013-03-15 12:39:00,
2013-03-15 07:40:00,30.7,29.5,29.38,NW,315,0.0,0.0,95,0.00,,OVC240,0.04,VWS V14.01,2013-03-15 12:40:00,
2013-03-15 07:59:00,32.7,32.0,29.35,SE,135,2.7,2.7,97,0.00,,OVC240,0.04,VWS V14.01,2013-03-15 12:59:00,
2013-03-15 08:00:00,32.7,32.0,29.35,SE,135,2.7,2.7,97,0.00,,OVC240,0.04,VWS V14.01,2013-03-15 13:00:00,
2013-03-15 08:09:00,33.8,33.3,29.35,ESE,112,1.1,1.1,98,0.00,,OVC240,0.04,VWS V14.01,2013-03-15 13:09:00,
2013-03-15 08:10:00,33.8,33.3,29.35,ESE,112,1.1,1.1,98,0.00,,OVC240,0.04,VWS V14.01,2013-03-15 13:10:00,
2013-03-15 08:19:00,34.9,34.4,29.38,SE,135,2.5,2.5,98,0.00,,OVC240,0.04,VWS V14.01,2013-03-15 13:19:00,
2013-03-15 08:20:00,34.9,34.4,29.38,SE,135,2.5,2.5,98,0.00,,OVC240,0.04,VWS V14.01,2013-03-15 13:20:00,
2013-03-15 08:29:00,36.1,35.6,29.38,SE,135,2.9,2.9,98,0.00,,OVC240,0.04,VWS V14.01,2013-03-15 13:29:00,
2013-03-15 08:30:00,36.1,35.6,29.38,SE,135,2.9,2.9,98,0.00,,OVC240,0.04,VWS V14.01,2013-03-15 13:30:00,
2013-03-15 08:39:00,37.6,36.8,29.38,SE,135,3.4,3.8,97,0.00,,OVC240,0.04,VWS V14.01,2013-03-15 13:39:00,
2013-03-15 08:40:00,37.6,36.8,29.38,SE,135,3.4,3.8,97,0.00,,OVC240,0.04,VWS V14.01,2013-03-15 13:40:00,
2013-03-15 08:49:00,40.1,38.8,29.35,SSE,158,3.1,3.8,95,0.00,,OVC240,0.04,VWS V14.01,2013-03-15 13:49:00,
2013-03-15 08:50:00,40.1,38.8,29.35,SSE,158,3.1,3.8,95,0.00,,OVC240,0.04,VWS V14.01,2013-03-15 13:50:00,
2013-03-15 08:59:00,42.6,39.0,29.38,SSE,158,3.8,3.8,87,0.00,,OVC240,0.04,VWS V14.01,2013-03-15 13:59:00,
2013-03-15 09:00:00,42.6,39.0,29.38,SSE,158,3.8,3.8,87,0.00,,OVC240,0.04,VWS V14.01,2013-03-15 14:00:00,
2013-03-15 09:09:00,45.1,39.3,29.38,West,270,2.0,2.0,80,0.00,,OVC240,0.04,VWS V14.01,2013-03-15 14:09:00,
2013-03-15 09:10:00,45.1,39.3,29.38,West,270,2.0,2.0,80,0.00,,OVC240,0.04,VWS V14.01,2013-03-15 14:10:00,
2013-03-15 09:19:00,46.6,38.4,29.35,SE,135,5.8,5.8,73,0.00,,OVC240,0.04,VWS V14.01,2013-03-15 14:19:00,
2013-03-15 09:20:00,46.6,38.4,29.35,SE,135,5.8,5.8,73,0.00,,OVC240,0.04,VWS V14.01,2013-03-15 14:20:00,
2013-03-15 09:29:00,49.5,40.5,29.38,SE,135,1.3,2.5,71,0.00,,OVC240,0.04,VWS V14.01,2013-03-15 14:29:00,
2013-03-15 09:30:00,49.5,40.5,29.38,SE,135,1.3,2.5,71,0.00,,OVC240,0.04,VWS V14.01,2013-03-15 14:30:00,
2013-03-15 09:39:00,50.0,34.5,29.38,SE,135,2.9,3.6,55,0.00,,OVC240,0.04,VWS V14.01,2013-03-15 14:39:00,
2013-03-15 09:40:00,50.0,34.5,29.38,SE,135,2.9,3.6,55,0.00,,OVC240,0.04,VWS V14.01,2013-03-15 14:40:00,
2013-03-15 09:49:00,51.1,35.0,29.38,SW,225,7.2,7.2,54,0.00,,OVC240,0.04,VWS V14.01,2013-03-15 14:49:00,
2013-03-15 09:50:00,51.1,35.0,29.38,SW,225,7.2,7.2,54,0.00,,OVC240,0.04,VWS V14.01,2013-03-15 14:50:00,
2013-03-15 09:59:00,52.0,33.9,29.38,SE,135,3.6,3.6,50,0.00,,OVC240,0.04,VWS V14.01,2013-03-15 14:59:00,
2013-03-15 10:00:00,52.0,33.9,29.38,SE,135,3.6,3.6,50,0.00,,OVC240,0.04,VWS V14.01,2013-03-15 15:00:00,
2013-03-15 10:09:00,54.0,35.2,29.38,West,270,7.4,7.4,49,0.00,,OVC240,0.04,VWS V14.01,2013-03-15 15:09:00,
2013-03-15 10:10:00,54.0,35.2,29.38,West,270,7.4,7.4,49,0.00,,OVC240,0.04,VWS V14.01,2013-03-15 15:10:00,
2013-03-15 10:19:00,55.4,36.1,29.38,SSE,158,6.0,6.0,48,0.00,,OVC240,0.04,VWS V14.01,2013-03-15 15:19:00,
2013-03-15 10:20:00,55.4,36.1,29.38,SSE,158,6.0,6.0,48,0.00,,OVC240,0.04,VWS V14.01,2013-03-15 15:20:00,
2013-03-15 10:29:00,56.1,36.2,29.35,SE,135,4.0,5.8,47,0.00,,OVC240,0.04,VWS V14.01,2013-03-15 15:29:00,
2013-03-15 10:30:00,56.1,36.2,29.35,SE,135,4.0,5.8,47,0.00,,OVC240,0.04,VWS V14.01,2013-03-15 15:30:00,
2013-03-15 10:39:00,57.0,35.9,29.35,WSW,248,4.3,4.7,45,0.00,,OVC240,0.04,VWS V14.01,2013-03-15 15:39:00,
2013-03-15 10:40:00,57.0,35.9,29.35,WSW,248,4.3,4.7,45,0.00,,OVC240,0.04,VWS V14.01,2013-03-15 15:40:00,
2013-03-15 10:49:00,57.6,36.4,29.35,SW,225,5.4,7.8,45,0.00,,OVC240,0.04,VWS V14.01,2013-03-15 15:49:00,
2013-03-15 10:50:00,57.6,36.4,29.35,SW,225,5.4,7.8,45,0.00,,OVC240,0.04,VWS V14.01,2013-03-15 15:50:00,
2013-03-15 10:59:00,59.4,36.9,29.35,SSE,158,5.8,8.1,43,0.00,,OVC240,0.04,VWS V14.01,2013-03-15 15:59:00,
2013-03-15 11:00:00,59.4,36.9,29.35,SSE,158,5.8,8.1,43,0.00,,OVC240,0.04,VWS V14.01,2013-03-15 16:00:00,
2013-03-15 11:09:00,59.7,37.2,29.35,SE,135,8.1,8.1,43,0.00,,OVC240,0.04,VWS V14.01,2013-03-15 16:09:00,
2013-03-15 11:10:00,59.7,37.2,29.35,SE,135,8.1,8.1,43,0.00,,OVC240,0.04,VWS V14.01,2013-03-15 16:10:00,
2013-03-15 11:19:00,59.9,37.4,29.35,SSE,158,6.0,7.2,43,0.00,,OVC240,0.04,VWS V14.01,2013-03-15 16:19:00,
2013-03-15 11:20:00,59.9,37.4,29.35,SSE,158,6.0,7.2,43,0.00,,OVC240,0.04,VWS V14.01,2013-03-15 16:20:00,
2013-03-15 11:29:00,61.0,38.3,29.35,West,270,5.6,5.6,43,0.00,,OVC240,0.04,VWS V14.01,2013-03-15 16:29:00,
2013-03-15 11:30:00,61.0,38.3,29.35,West,270,5.6,5.6,43,0.00,,OVC240,0.04,VWS V14.01,2013-03-15 16:30:00,
2013-03-15 11:39:00,62.2,38.3,29.35,ESE,112,5.6,5.6,41,0.00,,OVC240,0.04,VWS V14.01,2013-03-15 16:39:00,
2013-03-15 11:40:00,62.2,38.3,29.35,ESE,112,5.6,5.6,41,0.00,,OVC240,0.04,VWS V14.01,2013-03-15 16:40:00,
2013-03-15 11:49:00,63.5,38.8,29.32,SW,225,3.6,4.0,40,0.00,,OVC240,0.04,VWS V14.01,2013-03-15 16:49:00,
2013-03-15 11:50:00,63.5,38.8,29.32,SW,225,3.6,4.0,40,0.00,,OVC240,0.04,VWS V14.01,2013-03-15 16:50:00,
2013-03-15 11:59:00,64.0,39.2,29.29,South,180,7.4,7.4,40,0.00,,OVC240,0.04,VWS V14.01,2013-03-15 16:59:00,
2013-03-15 12:00:00,64.0,39.2,29.29,South,180,7.4,7.4,40,0.00,,OVC240,0.04,VWS V14.01,2013-03-15 17:00:00,
2013-03-15 12:09:00,64.4,38.9,29.29,SW,225,6.0,6.0,39,0.00,,OVC240,0.04,VWS V14.01,2013-03-15 17:09:00,
2013-03-15 12:10:00,64.4,38.9,29.29,SW,225,6.0,6.0,39,0.00,,OVC240,0.04,VWS V14.01,2013-03-15 17:10:00,
2013-03-15 12:19:00,65.5,39.9,29.29,SW,225,4.0,6.5,39,0.00,,OVC240,0.04,VWS V14.01,2013-03-15 17:19:00,
2013-03-15 12:20:00,65.5,39.9,29.29,SW,225,4.0,6.5,39,0.00,,OVC240,0.04,VWS V14.01,2013-03-15 17:20:00,
2013-03-15 12:29:00,66.9,41.8,29.32,SE,135,6.3,6.3,40,0.00,,OVC240,0.04,VWS V14.01,2013-03-15 17:29:00,
2013-03-15 12:30:00,66.9,41.8,29.32,SE,135,6.3,6.3,40,0.00,,OVC240,0.04,VWS V14.01,2013-03-15 17:30:00,
2013-03-15 12:39:00,66.9,40.5,29.32,SE,135,4.0,4.0,38,0.00,,OVC240,0.04,VWS V14.01,2013-03-15 17:39:00,
2013-03-15 12:40:00,66.9,40.5,29.32,SE,135,4.0,4.0,38,0.00,,OVC240,0.04,VWS V14.01,2013-03-15 17:40:00,
2013-03-15 12:49:00,67.6,40.5,29.32,WSW,248,6.5,7.6,37,0.00,,OVC240,0.04,VWS V14.01,2013-03-15 17:49:00,
2013-03-15 12:50:00,67.6,40.5,29.32,WSW,248,6.5,7.6,37,0.00,,OVC240,0.04,VWS V14.01,2013-03-15 17:50:00,
2013-03-15 12:59:00,69.1,41.7,29.29,NW,315,2.7,3.8,37,0.00,,OVC240,0.04,VWS V14.01,2013-03-15 17:59:00,
2013-03-15 13:00:00,69.1,41.7,29.29,NW,315,2.7,3.8,37,0.00,,OVC240,0.04,VWS V14.01,2013-03-15 18:00:00,
2013-03-15 13:09:00,70.5,41.6,29.29,SE,135,5.4,5.4,35,0.00,,OVC240,0.04,VWS V14.01,2013-03-15 18:09:00,
2013-03-15 13:10:00,70.5,41.6,29.29,SE,135,5.4,5.4,35,0.00,,OVC240,0.04,VWS V14.01,2013-03-15 18:10:00,
2013-03-15 13:19:00,70.7,42.5,29.26,SE,135,5.6,6.3,36,0.00,,OVC240,0.04,VWS V14.01,2013-03-15 18:19:00,
2013-03-15 13:20:00,70.7,42.5,29.26,SE,135,5.6,6.3,36,0.00,,OVC240,0.04,VWS V14.01,2013-03-15 18:20:00,
2013-03-15 13:29:00,70.5,41.6,29.26,SSW,202,4.3,4.3,35,0.00,,OVC240,0.04,VWS V14.01,2013-03-15 18:29:00,
2013-03-15 13:30:00,70.5,41.6,29.26,SSW,202,4.3,4.3,35,0.00,,OVC240,0.04,VWS V14.01,2013-03-15 18:30:00,
2013-03-15 13:39:00,70.0,41.1,29.26,SE,135,8.7,8.7,35,0.00,,OVC240,0.04,VWS V14.01,2013-03-15 18:39:00,
2013-03-15 13:40:00,70.0,41.1,29.26,SE,135,8.7,8.7,35,0.00,,OVC240,0.04,VWS V14.01,2013-03-15 18:40:00,
2013-03-15 13:49:00,70.3,42.2,29.23,SE,135,5.4,6.0,36,0.00,,OVC240,0.04,VWS V14.01,2013-03-15 18:49:00,
2013-03-15 13:50:00,70.3,42.2,29.23,SE,135,5.4,6.0,36,0.00,,OVC240,0.04,VWS V14.01,2013-03-15 18:50:00,
2013-03-15 13:59:00,71.6,43.3,29.23,SE,135,12.5,12.5,36,0.00,,OVC240,0.04,VWS V14.01,2013-03-15 18:59:00,
2013-03-15 14:00:00,71.6,43.3,29.23,SE,135,12.5,12.5,36,0.00,,OVC240,0.04,VWS V14.01,2013-03-15 19:00:00,
2013-03-15 14:09:00,70.7,42.5,29.23,SE,135,4.3,4.3,36,0.00,,OVC240,0.04,VWS V14.01,2013-03-15 19:09:00,
2013-03-15 14:10:00,70.7,42.5,29.23,SE,135,4.3,4.3,36,0.00,,OVC240,0.04,VWS V14.01,2013-03-15 19:10:00,
2013-03-15 14:19:00,70.0,41.8,29.26,NE,45,3.4,6.3,36,0.00,,OVC240,0.04,VWS V14.01,2013-03-15 19:19:00,
2013-03-15 14:20:00,70.0,41.8,29.26,NE,45,3.4,6.3,36,0.00,,OVC240,0.04,VWS V14.01,2013-03-15 19:20:00,
2013-03-15 14:29:00,71.2,42.2,29.26,West,270,4.9,4.9,35,0.00,,OVC240,0.04,VWS V14.01,2013-03-15 19:29:00,
2013-03-15 14:30:00,71.2,42.2,29.26,West,270,4.9,4.9,35,0.00,,OVC240,0.04,VWS V14.01,2013-03-15 19:30:00,
2013-03-15 14:39:00,71.1,42.0,29.26,SE,135,4.9,4.9,35,0.00,,OVC240,0.04,VWS V14.01,2013-03-15 19:39:00,
2013-03-15 14:40:00,71.1,42.0,29.26,SE,135,4.9,4.9,35,0.00,,OVC240,0.04,VWS V14.01,2013-03-15 19:40:00,
2013-03-15 14:49:00,71.8,43.4,29.23,SE,135,5.8,5.8,36,0.00,,OVC240,0.04,VWS V14.01,2013-03-15 19:49:00,
2013-03-15 14:50:00,71.8,43.4,29.23,SE,135,5.8,5.8,36,0.00,,OVC240,0.04,VWS V14.01,2013-03-15 19:50:00,
2013-03-15 14:59:00,74.1,44.0,29.20,SW,225,2.9,5.8,34,0.00,,OVC240,0.04,VWS V14.01,2013-03-15 19:59:00,
2013-03-15 15:00:00,74.1,44.0,29.20,SW,225,2.9,5.8,34,0.00,,OVC240,0.04,VWS V14.01,2013-03-15 20:00:00,
2013-03-15 15:09:00,74.8,44.6,29.20,SE,135,6.5,6.5,34,0.00,,OVC240,0.04,VWS V14.01,2013-03-15 20:09:00,
2013-03-15 15:10:00,74.8,44.6,29.20,SE,135,6.5,6.5,34,0.00,,OVC240,0.04,VWS V14.01,2013-03-15 20:10:00,
2013-03-15 15:19:00,76.8,45.6,29.20,SW,225,3.8,3.8,33,0.00,,OVC240,0.04,VWS V14.01,2013-03-15 20:19:00,
2013-03-15 15:20:00,76.8,45.6,29.20,SW,225,3.8,3.8,33,0.00,,OVC240,0.04,VWS V14.01,2013-03-15 20:20:00,
2013-03-15 15:29:00,76.6,45.4,29.20,SSE,158,8.7,8.7,33,0.00,,OVC240,0.04,VWS V14.01,2013-03-15 20:29:00,
2013-03-15 15:30:00,76.6,45.4,29.20,SSE,158,8.7,8.7,33,0.00,,OVC240,0.04,VWS V14.01,2013-03-15 20:30:00,
2013-03-15 15:39:00,75.4,44.3,29.20,SE,135,2.0,3.6,33,0.00,,OVC240,0.04,VWS V14.01,2013-03-15 20:39:00,
2013-03-15 15:40:00,75.4,44.3,29.20,SE,135,2.0,3.6,33,0.00,,OVC240,0.04,VWS V14.01,2013-03-15 20:40:00,
2013-03-15 15:49:00,74.3,44.1,29.20,South,180,5.4,5.4,34,0.00,,OVC240,0.04,VWS V14.01,2013-03-15 20:49:00,
2013-03-15 15:50:00,74.3,44.2,29.20,South,180,5.4,5.4,34,0.00,,OVC240,0.04,VWS V14.01,2013-03-15 20:50:00,
2013-03-15 15:59:00,73.9,43.8,29.20,WSW,248,4.0,4.0,34,0.00,,OVC240,0.04,VWS V14.01,2013-03-15 20:59:00,
2013-03-15 16:00:00,73.9,43.8,29.20,WSW,248,4.0,4.0,34,0.00,,OVC240,0.04,VWS V14.01,2013-03-15 21:00:00,
2013-03-15 16:09:00,77.2,46.7,29.20,SSE,158,4.0,4.0,34,0.00,,OVC240,0.04,VWS V14.01,2013-03-15 21:09:00,
2013-03-15 16:10:00,77.2,46.7,29.20,SSE,158,4.0,4.0,34,0.00,,OVC240,0.04,VWS V14.01,2013-03-15 21:10:00,
2013-03-15 16:19:00,77.7,45.5,29.20,SE,135,3.8,4.9,32,0.00,,OVC240,0.04,VWS V14.01,2013-03-15 21:19:00,
2013-03-15 16:20:00,77.7,45.5,29.20,SE,135,3.8,4.9,32,0.00,,OVC240,0.04,VWS V14.01,2013-03-15 21:20:00,
2013-03-15 16:29:00,77.5,45.4,29.20,WNW,292,8.1,8.1,32,0.00,,OVC240,0.04,VWS V14.01,2013-03-15 21:29:00,
2013-03-15 16:30:00,77.5,45.4,29.20,WNW,292,8.1,8.1,32,0.00,,OVC240,0.04,VWS V14.01,2013-03-15 21:30:00,
2013-03-15 16:39:00,78.1,45.0,29.20,SSW,202,8.7,8.7,31,0.00,,OVC240,0.04,VWS V14.01,2013-03-15 21:39:00,
2013-03-15 16:40:00,78.1,45.0,29.20,SSW,202,8.7,8.7,31,0.00,,OVC240,0.04,VWS V14.01,2013-03-15 21:40:00,
2013-03-15 16:49:00,76.6,44.6,29.17,South,180,5.8,7.6,32,0.00,,OVC240,0.04,VWS V14.01,2013-03-15 21:49:00,
2013-03-15 16:50:00,76.6,44.6,29.17,South,180,5.8,7.6,32,0.00,,OVC240,0.04,VWS V14.01,2013-03-15 21:50:00,
2013-03-15 16:59:00,74.8,43.0,29.17,SE,135,8.1,10.1,32,0.00,,OVC240,0.04,VWS V14.01,2013-03-15 21:59:00,
2013-03-15 17:00:00,74.8,43.0,29.17,SE,135,8.1,10.1,32,0.00,,OVC240,0.04,VWS V14.01,2013-03-15 22:00:00,
2013-03-15 17:09:00,74.8,43.0,29.17,South,180,9.8,9.8,32,0.00,,OVC240,0.04,VWS V14.01,2013-03-15 22:09:00,
2013-03-15 17:10:00,74.8,43.0,29.17,South,180,9.8,9.8,32,0.00,,OVC240,0.04,VWS V14.01,2013-03-15 22:10:00,
2013-03-15 17:19:00,74.3,43.4,29.17,SW,225,3.4,3.4,33,0.00,,OVC240,0.04,VWS V14.01,2013-03-15 22:19:00,
2013-03-15 17:20:00,74.3,43.4,29.17,SW,225,3.4,3.4,33,0.00,,OVC240,0.04,VWS V14.01,2013-03-15 22:20:00,
2013-03-15 17:29:00,72.9,42.9,29.17,SE,135,3.8,4.7,34,0.00,,OVC240,0.04,VWS V14.01,2013-03-15 22:29:00,
2013-03-15 17:30:00,72.9,42.9,29.17,SE,135,3.8,4.7,34,0.00,,OVC240,0.04,VWS V14.01,2013-03-15 22:30:00,
2013-03-15 17:39:00,72.1,42.2,29.17,SE,135,3.6,3.6,34,0.00,,OVC240,0.04,VWS V14.01,2013-03-15 22:39:00,
2013-03-15 17:40:00,72.1,42.2,29.17,SE,135,3.6,3.6,34,0.00,,OVC240,0.04,VWS V14.01,2013-03-15 22:40:00,
2013-03-15 17:49:00,71.8,41.9,29.17,WNW,292,1.6,1.6,34,0.00,,OVC240,0.04,VWS V14.01,2013-03-15 22:49:00,
2013-03-15 17:50:00,71.8,41.9,29.17,WNW,292,1.6,1.6,34,0.00,,OVC240,0.04,VWS V14.01,2013-03-15 22:50:00,
2013-03-15 17:59:00,71.6,41.8,29.17,SE,135,5.4,5.6,34,0.00,,OVC240,0.04,VWS V14.01,2013-03-15 22:59:00,
2013-03-15 18:00:00,71.6,41.8,29.17,SE,135,5.4,5.6,34,0.00,,OVC240,0.04,VWS V14.01,2013-03-15 23:00:00,
2013-03-15 18:09:00,70.9,41.9,29.17,WNW,292,0.9,0.9,35,0.00,,OVC240,0.04,VWS V14.01,2013-03-15 23:09:00,
2013-03-15 18:10:00,70.9,41.9,29.17,WNW,292,0.9,0.9,35,0.00,,OVC240,0.04,VWS V14.01,2013-03-15 23:10:00,
2013-03-15 18:19:00,70.7,41.7,29.17,South,180,7.4,7.4,35,0.00,,OVC240,0.04,VWS V14.01,2013-03-15 23:19:00,
2013-03-15 18:20:00,70.7,41.7,29.17,South,180,7.4,7.4,35,0.00,,OVC240,0.04,VWS V14.01,2013-03-15 23:20:00,
2013-03-15 18:29:00,68.5,40.5,29.17,SSW,202,2.7,2.7,36,0.00,,OVC240,0.04,VWS V14.01,2013-03-15 23:29:00,
2013-03-15 18:30:00,68.5,40.6,29.17,SSW,202,2.7,2.7,36,0.00,,OVC240,0.04,VWS V14.01,2013-03-15 23:30:00,
2013-03-15 18:39:00,66.7,40.3,29.17,North,0,0.0,0.0,38,0.00,,OVC240,0.04,VWS V14.01,2013-03-15 23:39:00,
2013-03-15 18:40:00,66.7,40.3,29.17,North,0,0.0,0.0,38,0.00,,OVC240,0.04,VWS V14.01,2013-03-15 23:40:00,
2013-03-15 18:49:00,64.4,39.6,29.17,NNW,338,2.7,2.7,40,0.00,,OVC240,0.04,VWS V14.01,2013-03-15 23:49:00,
2013-03-15 18:50:00,64.4,39.6,29.17,NNW,338,2.7,2.7,40,0.00,,OVC240,0.04,VWS V14.01,2013-03-15 23:50:00,
2013-03-15 18:59:00,62.8,40.0,29.17,NW,315,2.2,2.2,43,0.00,,OVC240,0.04,VWS V14.01,2013-03-15 23:59:00,
2013-03-15 19:00:00,62.8,40.0,29.17,NW,315,2.2,2.2,43,0.00,,OVC240,0.04,VWS V14.01,2013-03-16 00:00:00,
2013-03-15 19:09:00,61.3,39.8,29.17,NNW,338,2.5,2.5,45,0.00,,OVC240,0.04,VWS V14.01,2013-03-16 00:09:00,
2013-03-15 19:10:00,61.3,39.8,29.17,NNW,338,2.5,2.5,45,0.00,,OVC240,0.04,VWS V14.01,2013-03-16 00:10:00,
2013-03-15 19:19:00,60.8,40.5,29.20,NW,315,2.0,2.0,47,0.00,,OVC240,0.04,VWS V14.01,2013-03-16 00:19:00,
2013-03-15 19:20:00,60.8,40.5,29.20,NW,315,2.0,2.0,47,0.00,,OVC240,0.04,VWS V14.01,2013-03-16 00:20:00,
2013-03-15 19:29:00,59.7,41.6,29.17,NW,315,2.2,2.2,51,0.00,,OVC240,0.04,VWS V14.01,2013-03-16 00:29:00,
2013-03-15 19:30:00,59.7,41.6,29.17,NW,315,2.2,2.2,51,0.00,,OVC240,0.04,VWS V14.01,2013-03-16 00:30:00,
2013-03-15 19:39:00,58.8,41.2,29.17,WNW,292,1.3,1.3,52,0.00,,OVC240,0.04,VWS V14.01,2013-03-16 00:39:00,
2013-03-15 19:40:00,58.8,41.2,29.17,WNW,292,1.3,1.3,52,0.00,,OVC240,0.04,VWS V14.01,2013-03-16 00:40:00,
2013-03-15 19:49:00,59.4,42.2,29.17,NW,315,2.5,2.9,53,0.00,,OVC240,0.04,VWS V14.01,2013-03-16 00:49:00,
2013-03-15 19:50:00,59.4,42.2,29.17,NW,315,2.5,2.9,53,0.00,,OVC240,0.04,VWS V14.01,2013-03-16 00:50:00,
2013-03-15 19:59:00,58.1,41.6,29.17,NW,315,0.9,1.3,54,0.00,,OVC240,0.04,VWS V14.01,2013-03-16 00:59:00,
2013-03-15 20:00:00,58.1,41.6,29.17,NW,315,0.9,1.3,54,0.00,,OVC240,0.04,VWS V14.01,2013-03-16 01:00:00,
2013-03-15 20:09:00,57.4,41.8,29.17,North,0,1.3,2.5,56,0.00,,OVC240,0.04,VWS V14.01,2013-03-16 01:09:00,
2013-03-15 20:10:00,57.4,41.8,29.17,North,0,1.3,2.5,56,0.00,,OVC240,0.04,VWS V14.01,2013-03-16 01:10:00,
2013-03-15 20:19:00,56.8,41.3,29.17,NNW,338,2.0,2.0,56,0.00,,OVC240,0.04,VWS V14.01,2013-03-16 01:19:00,
2013-03-15 20:20:00,56.8,41.3,29.17,NNW,338,2.0,2.0,56,0.00,,OVC240,0.04,VWS V14.01,2013-03-16 01:20:00,
2013-03-15 20:29:00,56.3,41.7,29.17,NNW,338,2.0,2.2,58,0.00,,OVC240,0.04,VWS V14.01,2013-03-16 01:29:00,
2013-03-15 20:30:00,56.3,41.7,29.17,NNW,338,2.0,2.2,58,0.00,,OVC240,0.04,VWS V14.01,2013-03-16 01:30:00,
2013-03-15 20:39:00,55.8,41.7,29.17,NNW,338,2.2,2.2,59,0.00,,OVC240,0.04,VWS V14.01,2013-03-16 01:39:00,
2013-03-15 20:40:00,55.8,41.7,29.17,NNW,338,2.2,2.2,59,0.00,,OVC240,0.04,VWS V14.01,2013-03-16 01:40:00,
2013-03-15 20:49:00,55.8,42.5,29.17,NNW,338,2.5,2.5,61,0.00,,OVC240,0.04,VWS V14.01,2013-03-16 01:49:00,
2013-03-15 20:50:00,55.8,42.5,29.17,NNW,338,2.5,2.5,61,0.00,,OVC240,0.04,VWS V14.01,2013-03-16 01:50:00,
2013-03-15 20:59:00,55.6,42.4,29.17,SW,225,1.3,1.3,61,0.00,,OVC240,0.04,VWS V14.01,2013-03-16 01:59:00,
2013-03-15 21:00:00,55.6,42.4,29.17,SW,225,1.3,1.3,61,0.00,,OVC240,0.04,VWS V14.01,2013-03-16 02:00:00,
2013-03-15 21:09:00,55.4,42.6,29.17,NW,315,1.6,1.6,62,0.00,,OVC240,0.04,VWS V14.01,2013-03-16 02:09:00,
2013-03-15 21:10:00,55.4,42.6,29.17,NW,315,1.6,1.6,62,0.00,,OVC240,0.04,VWS V14.01,2013-03-16 02:10:00,
2013-03-15 21:19:00,55.6,42.8,29.17,NW,315,1.6,2.2,62,0.00,,OVC240,0.04,VWS V14.01,2013-03-16 02:19:00,
2013-03-15 21:20:00,55.6,42.8,29.17,NW,315,1.6,2.2,62,0.00,,OVC240,0.04,VWS V14.01,2013-03-16 02:20:00,
2013-03-15 21:29:00,55.6,42.8,29.17,NW,315,1.6,1.6,62,0.00,,OVC240,0.04,VWS V14.01,2013-03-16 02:29:00,
2013-03-15 21:30:00,55.6,42.8,29.17,NW,315,1.6,1.6,62,0.00,,OVC240,0.04,VWS V14.01,2013-03-16 02:30:00,
2013-03-15 21:39:00,55.9,43.5,29.17,NNW,338,2.0,2.0,63,0.00,,OVC240,0.04,VWS V14.01,2013-03-16 02:39:00,
2013-03-15 21:40:00,55.9,43.5,29.17,NNW,338,2.0,2.0,63,0.00,,OVC240,0.04,VWS V14.01,2013-03-16 02:40:00,
2013-03-15 21:49:00,55.9,43.5,29.17,NW,315,0.9,0.9,63,0.00,,OVC240,0.04,VWS V14.01,2013-03-16 02:49:00,
2013-03-15 21:50:00,55.9,43.5,29.17,NW,315,0.9,0.9,63,0.00,,OVC240,0.04,VWS V14.01,2013-03-16 02:50:00,
2013-03-15 21:59:00,55.8,43.4,29.17,NNW,338,0.0,0.0,63,0.00,,OVC240,0.04,VWS V14.01,2013-03-16 02:59:00,
2013-03-15 22:00:00,55.8,43.4,29.17,NNW,338,0.0,0.0,63,0.00,,OVC240,0.04,VWS V14.01,2013-03-16 03:00:00,
2013-03-15 22:09:00,55.9,43.5,29.17,NNW,338,0.0,0.0,63,0.00,,OVC240,0.04,VWS V14.01,2013-03-16 03:09:00,
2013-03-15 22:10:00,55.9,43.5,29.17,NNW,338,0.0,0.0,63,0.00,,OVC240,0.04,VWS V14.01,2013-03-16 03:10:00,
2013-03-15 22:19:00,55.8,43.4,29.17,NNW,338,1.3,1.3,63,0.00,,OVC240,0.04,VWS V14.01,2013-03-16 03:19:00,
2013-03-15 22:20:00,55.8,43.4,29.17,NNW,338,1.3,1.3,63,0.00,,OVC240,0.04,VWS V14.01,2013-03-16 03:20:00,
2013-03-15 22:28:00,55.4,43.4,29.17,North,0,1.6,2.5,64,0.00,,OVC240,0.04,VWS V14.01,2013-03-16 03:28:00,
2013-03-15 22:30:00,55.4,43.4,29.17,North,0,1.6,2.5,64,0.00,,OVC240,0.04,VWS V14.01,2013-03-16 03:30:00,
2013-03-15 22:39:00,55.0,43.1,29.17,NW,315,1.1,1.3,64,0.00,,OVC240,0.04,VWS V14.01,2013-03-16 03:39:00,
2013-03-15 22:40:00,55.0,43.1,29.17,NW,315,1.1,1.3,64,0.00,,OVC240,0.04,VWS V14.01,2013-03-16 03:40:00,
2013-03-15 22:49:00,54.5,42.2,29.14,NW,315,2.2,2.2,63,0.00,,OVC240,0.04,VWS V14.01,2013-03-16 03:49:00,
2013-03-15 22:50:00,54.5,42.2,29.15,NW,315,2.2,2.2,63,0.00,,OVC240,0.04,VWS V14.01,2013-03-16 03:50:00,
2013-03-15 22:59:00,54.5,43.0,29.14,West,270,0.9,0.9,65,0.00,,OVC240,0.04,VWS V14.01,2013-03-16 03:59:00,
2013-03-15 23:00:00,54.5,43.0,29.15,West,270,0.9,0.9,65,0.00,,OVC240,0.04,VWS V14.01,2013-03-16 04:00:00,
2013-03-15 23:09:00,54.3,42.8,29.14,NNW,338,1.3,1.3,65,0.00,,OVC240,0.04,VWS V14.01,2013-03-16 04:09:00,
2013-03-15 23:10:00,54.3,42.8,29.15,NNW,338,1.3,1.3,65,0.00,,OVC240,0.04,VWS V14.01,2013-03-16 04:10:00,
2013-03-15 23:19:00,53.8,42.3,29.14,NNW,338,1.3,1.6,65,0.00,,OVC240,0.04,VWS V14.01,2013-03-16 04:19:00,
2013-03-15 23:20:00,53.8,42.3,29.15,NNW,338,1.3,1.6,65,0.00,,OVC240,0.04,VWS V14.01,2013-03-16 04:20:00,
2013-03-15 23:29:00,53.2,42.6,29.14,NNW,338,2.5,2.5,67,0.00,,OVC240,0.04,VWS V14.01,2013-03-16 04:29:00,
2013-03-15 23:30:00,53.2,42.6,29.15,NNW,338,2.5,2.5,67,0.00,,OVC240,0.04,VWS V14.01,2013-03-16 04:30:00,
2013-03-15 23:39:00,53.1,42.8,29.14,NNW,338,2.0,2.0,68,0.00,,OVC240,0.04,VWS V14.01,2013-03-16 04:39:00,
2013-03-15 23:40:00,53.1,42.8,29.15,NNW,338,2.0,2.0,68,0.00,,OVC240,0.04,VWS V14.01,2013-03-16 04:40:00,
2013-03-15 23:49:00,52.5,42.7,29.17,North,0,1.6,1.6,69,0.00,,OVC240,0.04,VWS V14.01,2013-03-16 04:49:00,
2013-03-15 23:50:00,52.5,42.7,29.17,North,0,1.6,1.6,69,0.00,,OVC240,0.04,VWS V14.01,2013-03-16 04:50:00,
2013-03-15 23:59:00,52.5,42.7,29.14,North,0,0.9,0.9,69,0.00,,OVC240,0.00,VWS V14.01,2013-03-16 04:59:00,